sensor_id;sensor_type;location;lat;lon;timestamp;pressure;altitude;pressure_sealevel;temperature;humidity
929;BME280;451;47.988;7.842;2023-03-05T00:08:09;98892.44;;;1.28;100.00
929;BME280;451;47.988;7.842;2023-03-05T00:17:13;98896.53;;;1.05;100.00
929;BME280;451;47.988;7.842;2023-03-05T00:26:16;98870.41;;;0.96;100.00
929;BME280;451;47.988;7.842;2023-03-05T00:35:21;98860.00;;;1.23;100.00
929;BME280;451;47.988;7.842;2023-03-05T00:44:24;98866.53;;;1.41;100.00
929;BME280;451;47.988;7.842;2023-03-05T00:53:29;98863.44;;;1.23;100.00
929;BME280;451;47.988;7.842;2023-03-05T01:02:32;98862.59;;;1.23;100.00
929;BME280;451;47.988;7.842;2023-03-05T01:11:36;98855.13;;;1.05;100.00
929;BME280;451;47.988;7.842;2023-03-05T01:20:39;98860.47;;;1.02;100.00
929;BME280;451;47.988;7.842;2023-03-05T01:29:43;98843.78;;;0.81;100.00
929;BME280;451;47.988;7.842;2023-03-05T01:38:46;98820.56;;;0.67;100.00
929;BME280;451;47.988;7.842;2023-03-05T01:47:51;98797.94;;;0.96;100.00
929;BME280;451;47.988;7.842;2023-03-05T01:56:56;98779.69;;;0.72;100.00
929;BME280;451;47.988;7.842;2023-03-05T02:06:02;98766.91;;;0.31;100.00
929;BME280;451;47.988;7.842;2023-03-05T02:15:06;98775.34;;;0.60;100.00
929;BME280;451;47.988;7.842;2023-03-05T02:24:12;98804.56;;;0.87;100.00
929;BME280;451;47.988;7.842;2023-03-05T02:33:16;98769.34;;;0.72;100.00
929;BME280;451;47.988;7.842;2023-03-05T02:42:21;98800.19;;;0.35;100.00
929;BME280;451;47.988;7.842;2023-03-05T02:51:24;98799.41;;;0.87;100.00
929;BME280;451;47.988;7.842;2023-03-05T03:00:29;98790.06;;;0.72;100.00
929;BME280;451;47.988;7.842;2023-03-05T03:09:33;98788.47;;;0.69;100.00
929;BME280;451;47.988;7.842;2023-03-05T03:18:38;98768.19;;;0.63;100.00
929;BME280;451;47.988;7.842;2023-03-05T03:27:41;98765.72;;;0.22;100.00
929;BME280;451;47.988;7.842;2023-03-05T03:36:46;98758.72;;;0.24;100.00
929;BME280;451;47.988;7.842;2023-03-05T03:45:49;98749.78;;;0.16;100.00
929;BME280;451;47.988;7.842;2023-03-05T03:54:54;98742.06;;;1.18;100.00
929;BME280;451;47.988;7.842;2023-03-05T04:04:02;98735.66;;;1.11;100.00
929;BME280;451;47.988;7.842;2023-03-05T04:13:07;98707.88;;;1.01;100.00
929;BME280;451;47.988;7.842;2023-03-05T04:22:11;98711.84;;;0.68;100.00
929;BME280;451;47.988;7.842;2023-03-05T04:31:16;98711.50;;;1.11;100.00
929;BME280;451;47.988;7.842;2023-03-05T04:40:21;98705.75;;;1.44;97.43
929;BME280;451;47.988;7.842;2023-03-05T04:49:25;98665.03;;;1.46;95.76
929;BME280;451;47.988;7.842;2023-03-05T04:58:28;98697.75;;;1.83;93.74
929;BME280;451;47.988;7.842;2023-03-05T05:07:33;98690.22;;;1.44;95.52
929;BME280;451;47.988;7.842;2023-03-05T05:16:36;98679.22;;;1.53;95.23
929;BME280;451;47.988;7.842;2023-03-05T05:25:40;98413.66;;;-0.70;94.88
929;BME280;451;47.988;7.842;2023-03-05T05:34:44;98593.59;;;0.94;94.80
929;BME280;451;47.988;7.842;2023-03-05T05:43:49;98610.88;;;1.43;94.24
929;BME280;451;47.988;7.842;2023-03-05T05:52:52;98666.56;;;1.61;95.66
929;BME280;451;47.988;7.842;2023-03-05T06:01:57;98658.38;;;1.78;94.08
929;BME280;451;47.988;7.842;2023-03-05T06:11:00;98663.50;;;1.91;94.22
929;BME280;451;47.988;7.842;2023-03-05T06:20:05;98548.34;;;0.63;94.69
929;BME280;451;47.988;7.842;2023-03-05T06:29:08;98671.50;;;1.64;96.23
929;BME280;451;47.988;7.842;2023-03-05T06:38:13;98660.38;;;1.98;93.83
929;BME280;451;47.988;7.842;2023-03-05T06:47:21;98654.59;;;2.30;91.77
929;BME280;451;47.988;7.842;2023-03-05T06:56:26;98652.19;;;2.73;88.04
929;BME280;451;47.988;7.842;2023-03-05T07:05:30;98581.63;;;2.34;88.88
929;BME280;451;47.988;7.842;2023-03-05T07:14:35;98612.53;;;2.49;89.07
929;BME280;451;47.988;7.842;2023-03-05T07:23:38;98634.13;;;2.82;88.31
929;BME280;451;47.988;7.842;2023-03-05T07:32:42;98639.56;;;2.91;87.46
929;BME280;451;47.988;7.842;2023-03-05T07:41:46;98594.38;;;3.04;85.71
929;BME280;451;47.988;7.842;2023-03-05T07:51:00;98633.78;;;3.63;82.63
929;BME280;451;47.988;7.842;2023-03-05T08:00:05;98626.56;;;3.24;84.38
929;BME280;451;47.988;7.842;2023-03-05T08:09:15;98622.81;;;4.24;80.02
929;BME280;451;47.988;7.842;2023-03-05T08:18:18;98617.22;;;4.49;77.68
929;BME280;451;47.988;7.842;2023-03-05T08:27:23;98573.38;;;4.03;79.02
929;BME280;451;47.988;7.842;2023-03-05T08:36:27;98576.41;;;4.50;77.55
929;BME280;451;47.988;7.842;2023-03-05T08:45:31;98553.25;;;4.86;73.95
929;BME280;451;47.988;7.842;2023-03-05T08:54:35;98584.53;;;4.96;73.37
929;BME280;451;47.988;7.842;2023-03-05T09:03:40;98579.59;;;4.93;72.77
929;BME280;451;47.988;7.842;2023-03-05T09:12:43;98572.72;;;5.42;70.60
929;BME280;451;47.988;7.842;2023-03-05T09:21:48;98570.16;;;5.80;69.37
929;BME280;451;47.988;7.842;2023-03-05T09:30:51;98551.59;;;6.68;67.85
929;BME280;451;47.988;7.842;2023-03-05T09:39:55;98539.31;;;6.41;65.66
929;BME280;451;47.988;7.842;2023-03-05T09:49:04;98560.19;;;6.41;64.59
929;BME280;451;47.988;7.842;2023-03-05T09:58:15;98556.31;;;5.99;67.49
929;BME280;451;47.988;7.842;2023-03-05T10:07:23;98535.41;;;6.18;68.11
929;BME280;451;47.988;7.842;2023-03-05T10:16:44;98539.19;;;6.70;68.13
929;BME280;451;47.988;7.842;2023-03-05T10:26:01;98536.81;;;6.50;67.11
929;BME280;451;47.988;7.842;2023-03-05T10:35:18;98526.59;;;6.56;66.66
929;BME280;451;47.988;7.842;2023-03-05T10:44:32;98502.41;;;7.09;63.61
929;BME280;451;47.988;7.842;2023-03-05T10:53:47;98485.78;;;7.27;64.67
929;BME280;451;47.988;7.842;2023-03-05T11:02:56;98479.84;;;8.56;60.18
929;BME280;451;47.988;7.842;2023-03-05T11:12:19;98468.25;;;8.33;61.83
929;BME280;451;47.988;7.842;2023-03-05T11:21:23;98458.63;;;8.33;60.92
929;BME280;451;47.988;7.842;2023-03-05T11:30:31;98470.91;;;7.89;62.17
929;BME280;451;47.988;7.842;2023-03-05T11:39:35;98453.34;;;7.82;62.33
929;BME280;451;47.988;7.842;2023-03-05T11:48:43;98433.25;;;8.34;60.31
929;BME280;451;47.988;7.842;2023-03-05T11:57:52;98368.47;;;8.52;58.37
929;BME280;451;47.988;7.842;2023-03-05T12:07:01;98389.53;;;9.74;58.45
929;BME280;451;47.988;7.842;2023-03-05T12:16:12;98383.50;;;9.08;57.90
929;BME280;451;47.988;7.842;2023-03-05T12:25:26;98367.75;;;9.00;59.40
929;BME280;451;47.988;7.842;2023-03-05T12:34:40;98298.25;;;8.64;60.15
929;BME280;451;47.988;7.842;2023-03-05T12:44:08;98343.50;;;9.47;58.28
929;BME280;451;47.988;7.842;2023-03-05T12:53:13;98329.19;;;10.21;56.27
929;BME280;451;47.988;7.842;2023-03-05T13:02:25;98316.44;;;10.01;57.62
929;BME280;451;47.988;7.842;2023-03-05T13:11:30;98266.50;;;8.99;57.89
929;BME280;451;47.988;7.842;2023-03-05T13:20:37;98304.94;;;10.41;54.54
929;BME280;451;47.988;7.842;2023-03-05T13:29:49;98289.41;;;9.29;56.74
929;BME280;451;47.988;7.842;2023-03-05T13:38:54;98274.59;;;9.53;56.81
929;BME280;451;47.988;7.842;2023-03-05T13:47:58;98278.88;;;9.46;55.45
929;BME280;451;47.988;7.842;2023-03-05T13:57:05;98272.94;;;9.52;54.54
929;BME280;451;47.988;7.842;2023-03-05T14:06:10;98257.56;;;9.41;54.63
929;BME280;451;47.988;7.842;2023-03-05T14:15:21;98187.94;;;9.22;53.68
929;BME280;451;47.988;7.842;2023-03-05T14:24:25;98244.25;;;9.50;53.03
929;BME280;451;47.988;7.842;2023-03-05T14:33:33;98247.81;;;9.10;50.45
929;BME280;451;47.988;7.842;2023-03-05T14:42:37;98218.34;;;8.60;50.23
929;BME280;451;47.988;7.842;2023-03-05T14:51:52;98212.44;;;8.98;50.23
929;BME280;451;47.988;7.842;2023-03-05T15:00:55;98185.41;;;8.81;51.67
929;BME280;451;47.988;7.842;2023-03-05T15:10:00;98193.47;;;8.47;54.37
929;BME280;451;47.988;7.842;2023-03-05T15:19:03;98180.19;;;8.49;55.70
929;BME280;451;47.988;7.842;2023-03-05T15:28:07;97883.69;;;6.44;57.96
929;BME280;451;47.988;7.842;2023-03-05T15:37:10;98036.66;;;8.36;55.39
929;BME280;451;47.988;7.842;2023-03-05T15:46:21;98147.59;;;8.68;56.93
929;BME280;451;47.988;7.842;2023-03-05T15:55:36;98115.53;;;8.33;56.50
929;BME280;451;47.988;7.842;2023-03-05T16:04:41;98131.25;;;8.41;58.24
929;BME280;451;47.988;7.842;2023-03-05T16:13:44;98118.47;;;8.46;56.74
929;BME280;451;47.988;7.842;2023-03-05T16:22:48;98137.69;;;7.64;59.81
929;BME280;451;47.988;7.842;2023-03-05T16:31:51;98095.88;;;7.97;60.09
929;BME280;451;47.988;7.842;2023-03-05T16:40:56;98096.16;;;7.61;61.18
929;BME280;451;47.988;7.842;2023-03-05T16:49:59;98089.56;;;7.41;62.27
929;BME280;451;47.988;7.842;2023-03-05T16:59:04;98044.34;;;6.65;64.19
929;BME280;451;47.988;7.842;2023-03-05T17:08:07;98082.03;;;7.30;64.62
929;BME280;451;47.988;7.842;2023-03-05T17:17:12;98090.81;;;6.53;67.70
929;BME280;451;47.988;7.842;2023-03-05T17:26:17;98058.34;;;5.86;68.99
929;BME280;451;47.988;7.842;2023-03-05T17:35:22;98092.03;;;6.67;68.29
929;BME280;451;47.988;7.842;2023-03-05T17:44:25;98022.66;;;6.13;65.56
929;BME280;451;47.988;7.842;2023-03-05T17:53:30;98030.47;;;6.04;67.55
929;BME280;451;47.988;7.842;2023-03-05T18:02:33;98085.94;;;6.32;68.84
929;BME280;451;47.988;7.842;2023-03-05T18:11:37;98055.41;;;6.07;69.42
929;BME280;451;47.988;7.842;2023-03-05T18:20:48;98146.94;;;6.31;68.77
929;BME280;451;47.988;7.842;2023-03-05T18:29:52;98081.28;;;6.18;70.45
929;BME280;451;47.988;7.842;2023-03-05T18:38:57;98077.09;;;5.37;73.40
929;BME280;451;47.988;7.842;2023-03-05T18:48:03;98057.88;;;4.93;75.16
929;BME280;451;47.988;7.842;2023-03-05T18:57:06;98072.03;;;4.53;77.57
929;BME280;451;47.988;7.842;2023-03-05T19:06:11;98063.53;;;4.51;78.21
929;BME280;451;47.988;7.842;2023-03-05T19:15:16;97890.88;;;3.22;79.86
929;BME280;451;47.988;7.842;2023-03-05T19:24:21;98053.59;;;4.27;80.01
929;BME280;451;47.988;7.842;2023-03-05T19:33:24;98010.50;;;4.15;81.22
929;BME280;451;47.988;7.842;2023-03-05T19:42:30;97975.56;;;3.81;83.31
929;BME280;451;47.988;7.842;2023-03-05T19:51:34;97997.50;;;4.79;78.29
929;BME280;451;47.988;7.842;2023-03-05T20:00:38;98070.34;;;4.62;81.16
929;BME280;451;47.988;7.842;2023-03-05T20:09:41;98011.59;;;4.22;83.97
929;BME280;451;47.988;7.842;2023-03-05T20:18:47;97732.38;;;3.04;79.84
929;BME280;451;47.988;7.842;2023-03-05T20:27:57;97998.16;;;4.81;78.86
929;BME280;451;47.988;7.842;2023-03-05T20:37:07;97993.88;;;4.90;76.69
929;BME280;451;47.988;7.842;2023-03-05T20:46:15;97984.22;;;5.00;75.40
929;BME280;451;47.988;7.842;2023-03-05T20:55:22;97978.13;;;5.27;75.26
929;BME280;451;47.988;7.842;2023-03-05T21:04:29;97968.75;;;5.16;74.29
929;BME280;451;47.988;7.842;2023-03-05T21:13:33;97921.19;;;4.79;74.48
929;BME280;451;47.988;7.842;2023-03-05T21:22:37;97954.91;;;4.98;73.73
929;BME280;451;47.988;7.842;2023-03-05T21:31:41;97945.41;;;4.62;75.32
929;BME280;451;47.988;7.842;2023-03-05T21:40:45;97863.38;;;4.58;75.78
929;BME280;451;47.988;7.842;2023-03-05T21:49:51;97889.41;;;4.75;75.60
929;BME280;451;47.988;7.842;2023-03-05T21:58:55;97910.31;;;4.83;76.26
929;BME280;451;47.988;7.842;2023-03-05T22:07:59;97903.06;;;4.87;76.87
929;BME280;451;47.988;7.842;2023-03-05T22:17:04;97890.22;;;4.76;76.23
929;BME280;451;47.988;7.842;2023-03-05T22:26:08;97905.09;;;4.66;78.27
929;BME280;451;47.988;7.842;2023-03-05T22:35:14;97878.16;;;4.75;78.27
929;BME280;451;47.988;7.842;2023-03-05T22:44:18;97880.22;;;4.99;78.20
929;BME280;451;47.988;7.842;2023-03-05T22:53:22;97857.19;;;4.94;77.65
929;BME280;451;47.988;7.842;2023-03-05T23:02:26;97852.00;;;4.59;78.33
929;BME280;451;47.988;7.842;2023-03-05T23:11:29;97839.22;;;4.47;78.42
929;BME280;451;47.988;7.842;2023-03-05T23:20:35;97790.84;;;4.27;79.13
929;BME280;451;47.988;7.842;2023-03-05T23:29:39;97653.16;;;3.73;79.11
929;BME280;451;47.988;7.842;2023-03-05T23:38:56;97806.06;;;4.50;80.08
929;BME280;451;47.988;7.842;2023-03-05T23:47:59;97739.44;;;4.21;78.82
929;BME280;451;47.988;7.842;2023-03-05T23:57:04;97782.41;;;4.43;78.26
